sensor_id;sensor_type;location;lat;lon;timestamp;pressure;altitude;pressure_sealevel;temperature;humidity
22580;BME280;11456;47.030;15.396;2022-07-21T00:00:26;97771.09;;;20.30;63.93
22580;BME280;11456;47.030;15.396;2022-07-21T00:02:55;97775.72;;;20.29;63.99
22580;BME280;11456;47.030;15.396;2022-07-21T00:05:22;97782.88;;;20.30;63.89
22580;BME280;11456;47.030;15.396;2022-07-21T00:07:50;97774.47;;;20.32;63.42
22580;BME280;11456;47.030;15.396;2022-07-21T00:10:19;97771.13;;;20.43;62.72
22580;BME280;11456;47.030;15.396;2022-07-21T00:12:46;97770.72;;;20.46;62.82
22580;BME280;11456;47.030;15.396;2022-07-21T00:15:15;97767.34;;;20.44;63.22
22580;BME280;11456;47.030;15.396;2022-07-21T00:17:42;97766.28;;;20.45;62.99
22580;BME280;11456;47.030;15.396;2022-07-21T00:20:09;97771.94;;;20.30;63.49
22580;BME280;11456;47.030;15.396;2022-07-21T00:22:37;97768.19;;;20.38;63.40
22580;BME280;11456;47.030;15.396;2022-07-21T00:25:04;97767.97;;;20.39;63.27
22580;BME280;11456;47.030;15.396;2022-07-21T00:27:31;97769.84;;;20.13;64.70
22580;BME280;11456;47.030;15.396;2022-07-21T00:29:58;97769.44;;;20.29;63.67
22580;BME280;11456;47.030;15.396;2022-07-21T00:32:25;97782.28;;;20.28;63.49
22580;BME280;11456;47.030;15.396;2022-07-21T00:34:57;97781.84;;;20.25;63.44
22580;BME280;11456;47.030;15.396;2022-07-21T00:37:24;97777.22;;;20.25;64.14
22580;BME280;11456;47.030;15.396;2022-07-21T00:39:51;97782.88;;;20.17;64.39
22580;BME280;11456;47.030;15.396;2022-07-21T00:42:26;97777.84;;;20.21;64.08
22580;BME280;11456;47.030;15.396;2022-07-21T00:44:54;97778.88;;;20.07;65.09
22580;BME280;11456;47.030;15.396;2022-07-21T00:47:26;97772.38;;;19.94;65.95
22580;BME280;11456;47.030;15.396;2022-07-21T00:49:53;97774.91;;;19.96;65.36
22580;BME280;11456;47.030;15.396;2022-07-21T00:52:20;97759.31;;;19.90;65.20
22580;BME280;11456;47.030;15.396;2022-07-21T00:54:47;97762.63;;;19.66;66.54
22580;BME280;11456;47.030;15.396;2022-07-21T00:57:15;97761.81;;;19.65;66.23
22580;BME280;11456;47.030;15.396;2022-07-21T00:59:43;97763.50;;;19.73;65.96
22580;BME280;11456;47.030;15.396;2022-07-21T01:02:10;97762.06;;;19.90;64.74
22580;BME280;11456;47.030;15.396;2022-07-21T01:04:37;97754.28;;;19.93;64.61
22580;BME280;11456;47.030;15.396;2022-07-21T01:07:05;97768.13;;;19.85;65.55
22580;BME280;11456;47.030;15.396;2022-07-21T01:09:34;97763.50;;;19.79;65.74
22580;BME280;11456;47.030;15.396;2022-07-21T01:12:01;97763.94;;;19.76;66.07
22580;BME280;11456;47.030;15.396;2022-07-21T01:14:28;97775.72;;;19.83;65.45
22580;BME280;11456;47.030;15.396;2022-07-21T01:16:55;97764.94;;;19.62;66.42
22580;BME280;11456;47.030;15.396;2022-07-21T01:19:22;97763.03;;;19.56;66.49
22580;BME280;11456;47.030;15.396;2022-07-21T01:21:49;97768.91;;;19.53;66.84
22580;BME280;11456;47.030;15.396;2022-07-21T01:24:16;97764.72;;;19.57;66.37
22580;BME280;11456;47.030;15.396;2022-07-21T01:26:49;97761.41;;;19.75;66.09
22580;BME280;11456;47.030;15.396;2022-07-21T01:29:17;97768.25;;;19.44;67.47
22580;BME280;11456;47.030;15.396;2022-07-21T01:31:46;97765.13;;;19.54;66.77
22580;BME280;11456;47.030;15.396;2022-07-21T01:34:13;97770.00;;;19.65;65.62
22580;BME280;11456;47.030;15.396;2022-07-21T01:36:40;97761.00;;;19.71;65.48
22580;BME280;11456;47.030;15.396;2022-07-21T01:39:07;97765.34;;;19.46;66.98
22580;BME280;11456;47.030;15.396;2022-07-21T01:41:52;97765.06;;;19.41;67.07
22580;BME280;11456;47.030;15.396;2022-07-21T01:44:20;97759.28;;;19.57;66.18
22580;BME280;11456;47.030;15.396;2022-07-21T01:46:49;97763.03;;;19.56;66.64
22580;BME280;11456;47.030;15.396;2022-07-21T01:49:18;97767.47;;;19.57;66.28
22580;BME280;11456;47.030;15.396;2022-07-21T01:51:45;97760.53;;;19.61;66.63
22580;BME280;11456;47.030;15.396;2022-07-21T01:54:12;97762.59;;;19.52;67.20
22580;BME280;11456;47.030;15.396;2022-07-21T01:56:43;97764.78;;;19.22;68.21
22580;BME280;11456;47.030;15.396;2022-07-21T01:59:09;97761.63;;;19.12;68.86
22580;BME280;11456;47.030;15.396;2022-07-21T02:01:36;97766.22;;;19.12;68.83
22580;BME280;11456;47.030;15.396;2022-07-21T02:04:04;97761.41;;;19.20;68.56
22580;BME280;11456;47.030;15.396;2022-07-21T02:06:32;97757.06;;;19.33;68.57
22580;BME280;11456;47.030;15.396;2022-07-21T02:08:58;97753.19;;;19.14;69.43
22580;BME280;11456;47.030;15.396;2022-07-21T02:11:25;97757.34;;;19.03;69.74
22580;BME280;11456;47.030;15.396;2022-07-21T02:13:52;97758.59;;;18.94;70.68
22580;BME280;11456;47.030;15.396;2022-07-21T02:16:19;97755.53;;;19.17;69.58
22580;BME280;11456;47.030;15.396;2022-07-21T02:18:46;97760.56;;;19.13;69.80
22580;BME280;11456;47.030;15.396;2022-07-21T02:21:13;97762.75;;;18.90;70.59
22580;BME280;11456;47.030;15.396;2022-07-21T02:23:39;97769.03;;;18.84;71.28
22580;BME280;11456;47.030;15.396;2022-07-21T02:26:06;97753.13;;;18.94;70.50
22580;BME280;11456;47.030;15.396;2022-07-21T02:28:33;97757.78;;;19.00;69.92
22580;BME280;11456;47.030;15.396;2022-07-21T02:31:00;97759.16;;;18.83;70.92
22580;BME280;11456;47.030;15.396;2022-07-21T02:33:27;97757.16;;;18.64;72.22
22580;BME280;11456;47.030;15.396;2022-07-21T02:35:54;97763.97;;;18.81;71.48
22580;BME280;11456;47.030;15.396;2022-07-21T02:38:21;97760.59;;;18.79;71.43
22580;BME280;11456;47.030;15.396;2022-07-21T02:40:48;97754.97;;;18.53;72.10
22580;BME280;11456;47.030;15.396;2022-07-21T02:43:22;97752.53;;;18.64;71.89
22580;BME280;11456;47.030;15.396;2022-07-21T02:45:49;97754.03;;;18.67;71.24
22580;BME280;11456;47.030;15.396;2022-07-21T02:48:16;97754.25;;;18.72;71.45
22580;BME280;11456;47.030;15.396;2022-07-21T02:50:43;97748.22;;;18.49;72.27
22580;BME280;11456;47.030;15.396;2022-07-21T02:53:13;97755.09;;;18.44;73.04
22580;BME280;11456;47.030;15.396;2022-07-21T02:55:43;97756.31;;;18.35;73.76
22580;BME280;11456;47.030;15.396;2022-07-21T02:58:19;97747.88;;;18.58;72.20
22580;BME280;11456;47.030;15.396;2022-07-21T03:00:50;97747.88;;;18.58;72.40
22580;BME280;11456;47.030;15.396;2022-07-21T03:03:17;97755.91;;;18.66;72.19
22580;BME280;11456;47.030;15.396;2022-07-21T03:05:44;97751.47;;;18.37;73.25
22580;BME280;11456;47.030;15.396;2022-07-21T03:08:11;97752.66;;;18.50;72.30
22580;BME280;11456;47.030;15.396;2022-07-21T03:10:39;97760.81;;;18.50;72.23
22580;BME280;11456;47.030;15.396;2022-07-21T03:13:07;97753.59;;;18.35;73.24
22580;BME280;11456;47.030;15.396;2022-07-21T03:15:34;97770.16;;;18.62;72.01
22580;BME280;11456;47.030;15.396;2022-07-21T03:18:01;97760.53;;;18.66;71.46
22580;BME280;11456;47.030;15.396;2022-07-21T03:20:31;97752.53;;;18.64;71.52
22580;BME280;11456;47.030;15.396;2022-07-21T03:22:58;97758.34;;;18.55;72.20
22580;BME280;11456;47.030;15.396;2022-07-21T03:25:25;97761.53;;;18.30;73.68
22580;BME280;11456;47.030;15.396;2022-07-21T03:27:53;97761.22;;;18.47;73.17
22580;BME280;11456;47.030;15.396;2022-07-21T03:30:20;97761.59;;;18.43;72.98
22580;BME280;11456;47.030;15.396;2022-07-21T03:32:49;97762.94;;;18.54;72.50
22580;BME280;11456;47.030;15.396;2022-07-21T03:35:16;97759.44;;;18.60;72.34
22580;BME280;11456;47.030;15.396;2022-07-21T03:40:17;97759.38;;;18.54;73.25
22580;BME280;11456;47.030;15.396;2022-07-21T03:42:45;97763.66;;;18.35;74.30
22580;BME280;11456;47.030;15.396;2022-07-21T03:45:12;97774.09;;;18.31;74.06
22580;BME280;11456;47.030;15.396;2022-07-21T03:47:39;97766.41;;;18.14;74.93
22580;BME280;11456;47.030;15.396;2022-07-21T03:50:06;97767.50;;;18.47;73.93
22580;BME280;11456;47.030;15.396;2022-07-21T03:52:33;97770.97;;;18.56;73.17
22580;BME280;11456;47.030;15.396;2022-07-21T03:55:00;97772.25;;;18.60;73.14
22580;BME280;11456;47.030;15.396;2022-07-21T03:57:52;97765.81;;;18.46;74.58
22580;BME280;11456;47.030;15.396;2022-07-21T04:00:28;97768.63;;;18.31;75.64
22580;BME280;11456;47.030;15.396;2022-07-21T04:02:57;97773.81;;;18.48;75.26
22580;BME280;11456;47.030;15.396;2022-07-21T04:05:24;97765.50;;;18.56;74.56
22580;BME280;11456;47.030;15.396;2022-07-21T04:07:52;97779.47;;;18.74;73.49
22580;BME280;11456;47.030;15.396;2022-07-21T04:10:23;97774.00;;;18.74;74.15
22580;BME280;11456;47.030;15.396;2022-07-21T04:12:54;97776.53;;;18.75;73.69
22580;BME280;11456;47.030;15.396;2022-07-21T04:15:21;97780.00;;;18.63;74.49
22580;BME280;11456;47.030;15.396;2022-07-21T04:17:48;97780.63;;;18.58;74.60
22580;BME280;11456;47.030;15.396;2022-07-21T04:20:16;97771.59;;;18.58;73.75
22580;BME280;11456;47.030;15.396;2022-07-21T04:22:44;97780.66;;;18.65;74.54
22580;BME280;11456;47.030;15.396;2022-07-21T04:25:11;97779.13;;;18.90;73.22
22580;BME280;11456;47.030;15.396;2022-07-21T04:27:39;97790.84;;;18.84;72.84
22580;BME280;11456;47.030;15.396;2022-07-21T04:30:07;97791.72;;;18.91;73.62
22580;BME280;11456;47.030;15.396;2022-07-21T04:32:34;97786.19;;;19.12;71.61
22580;BME280;11456;47.030;15.396;2022-07-21T04:35:02;97786.84;;;19.28;71.56
22580;BME280;11456;47.030;15.396;2022-07-21T04:37:30;97784.03;;;19.49;70.97
22580;BME280;11456;47.030;15.396;2022-07-21T04:39:57;97785.56;;;19.65;70.52
22580;BME280;11456;47.030;15.396;2022-07-21T04:42:23;97795.47;;;19.85;69.78
22580;BME280;11456;47.030;15.396;2022-07-21T04:44:51;97782.47;;;20.00;69.07
22580;BME280;11456;47.030;15.396;2022-07-21T04:47:17;97787.50;;;20.17;68.33
22580;BME280;11456;47.030;15.396;2022-07-21T04:49:44;97780.78;;;20.26;68.54
22580;BME280;11456;47.030;15.396;2022-07-21T04:52:11;97774.47;;;20.25;68.10
22580;BME280;11456;47.030;15.396;2022-07-21T04:54:38;97780.78;;;20.13;67.16
22580;BME280;11456;47.030;15.396;2022-07-21T04:57:05;97782.88;;;20.11;67.52
22580;BME280;11456;47.030;15.396;2022-07-21T04:59:33;97785.00;;;20.28;66.71
22580;BME280;11456;47.030;15.396;2022-07-21T05:02:01;97787.09;;;20.72;65.11
22580;BME280;11456;47.030;15.396;2022-07-21T05:04:28;97786.16;;;21.11;63.67
22580;BME280;11456;47.030;15.396;2022-07-21T05:06:55;97792.19;;;21.33;63.01
22580;BME280;11456;47.030;15.396;2022-07-21T05:09:22;97798.88;;;21.57;62.22
22580;BME280;11456;47.030;15.396;2022-07-21T05:11:49;97792.44;;;21.76;61.57
22580;BME280;11456;47.030;15.396;2022-07-21T05:14:16;97792.56;;;21.88;60.75
22580;BME280;11456;47.030;15.396;2022-07-21T05:16:43;97790.63;;;22.26;58.74
22580;BME280;11456;47.030;15.396;2022-07-21T05:19:10;97792.19;;;22.16;59.09
22580;BME280;11456;47.030;15.396;2022-07-21T05:21:37;97793.38;;;21.95;59.95
22580;BME280;11456;47.030;15.396;2022-07-21T05:24:04;97795.91;;;21.90;58.62
22580;BME280;11456;47.030;15.396;2022-07-21T05:26:30;97806.19;;;22.32;59.26
22580;BME280;11456;47.030;15.396;2022-07-21T05:28:57;97802.00;;;22.55;58.32
22580;BME280;11456;47.030;15.396;2022-07-21T05:31:24;97805.09;;;22.65;58.23
22580;BME280;11456;47.030;15.396;2022-07-21T05:33:50;97805.09;;;22.65;57.85
22580;BME280;11456;47.030;15.396;2022-07-21T05:36:17;97795.00;;;22.59;56.79
22580;BME280;11456;47.030;15.396;2022-07-21T05:38:46;97793.63;;;22.68;56.78
22580;BME280;11456;47.030;15.396;2022-07-21T05:41:13;97791.94;;;22.67;56.22
22580;BME280;11456;47.030;15.396;2022-07-21T05:43:39;97797.81;;;22.77;55.01
22580;BME280;11456;47.030;15.396;2022-07-21T05:46:06;97789.22;;;23.10;54.24
22580;BME280;11456;47.030;15.396;2022-07-21T05:48:34;97799.66;;;23.19;54.82
22580;BME280;11456;47.030;15.396;2022-07-21T05:51:01;97806.56;;;23.29;54.07
22580;BME280;11456;47.030;15.396;2022-07-21T05:53:27;97804.25;;;23.44;52.62
22580;BME280;11456;47.030;15.396;2022-07-21T05:55:55;97810.81;;;23.25;53.03
22580;BME280;11456;47.030;15.396;2022-07-21T05:58:22;97801.03;;;23.65;53.14
22580;BME280;11456;47.030;15.396;2022-07-21T06:00:52;97809.91;;;24.27;51.01
22580;BME280;11456;47.030;15.396;2022-07-21T06:03:50;97801.34;;;24.58;49.45
22580;BME280;11456;47.030;15.396;2022-07-21T06:06:18;97804.00;;;24.76;48.90
22580;BME280;11456;47.030;15.396;2022-07-21T06:08:47;97794.19;;;25.04;48.88
22580;BME280;11456;47.030;15.396;2022-07-21T06:11:17;97794.91;;;24.88;49.55
22580;BME280;11456;47.030;15.396;2022-07-21T06:13:45;97799.06;;;24.44;50.52
22580;BME280;11456;47.030;15.396;2022-07-21T06:16:12;97808.06;;;24.74;49.59
22580;BME280;11456;47.030;15.396;2022-07-21T06:18:40;97807.47;;;24.84;48.50
22580;BME280;11456;47.030;15.396;2022-07-21T06:21:06;97803.31;;;24.93;49.64
22580;BME280;11456;47.030;15.396;2022-07-21T06:23:34;97794.63;;;25.24;48.42
22580;BME280;11456;47.030;15.396;2022-07-21T06:26:01;97799.91;;;26.06;46.64
22580;BME280;11456;47.030;15.396;2022-07-21T06:28:27;97799.97;;;25.94;46.93
22580;BME280;11456;47.030;15.396;2022-07-21T06:30:54;97798.06;;;25.94;46.35
22580;BME280;11456;47.030;15.396;2022-07-21T06:33:22;97801.66;;;25.95;46.33
22580;BME280;11456;47.030;15.396;2022-07-21T06:35:49;97800.94;;;26.61;45.33
22580;BME280;11456;47.030;15.396;2022-07-21T06:38:15;97805.44;;;26.84;45.05
22580;BME280;11456;47.030;15.396;2022-07-21T06:40:42;97797.75;;;26.86;45.39
22580;BME280;11456;47.030;15.396;2022-07-21T06:43:10;97800.25;;;26.71;44.59
22580;BME280;11456;47.030;15.396;2022-07-21T06:45:55;97795.94;;;26.92;44.51
22580;BME280;11456;47.030;15.396;2022-07-21T06:48:22;97802.38;;;27.36;42.76
22580;BME280;11456;47.030;15.396;2022-07-21T06:50:50;97794.56;;;27.11;42.88
22580;BME280;11456;47.030;15.396;2022-07-21T06:53:17;97794.28;;;27.95;41.76
22580;BME280;11456;47.030;15.396;2022-07-21T06:55:44;97796.28;;;27.56;42.95
22580;BME280;11456;47.030;15.396;2022-07-21T06:58:17;97793.63;;;27.87;41.40
22580;BME280;11456;47.030;15.396;2022-07-21T07:00:46;97803.44;;;27.51;41.89
22580;BME280;11456;47.030;15.396;2022-07-21T07:03:14;97795.38;;;27.72;41.84
22580;BME280;11456;47.030;15.396;2022-07-21T07:05:43;97798.38;;;28.41;40.20
22580;BME280;11456;47.030;15.396;2022-07-21T07:08:10;97794.53;;;28.15;38.88
22580;BME280;11456;47.030;15.396;2022-07-21T07:10:42;97787.88;;;28.75;39.18
22580;BME280;11456;47.030;15.396;2022-07-21T07:13:10;97785.41;;;29.62;37.86
22580;BME280;11456;47.030;15.396;2022-07-21T07:15:56;97789.56;;;30.57;36.46
22580;BME280;11456;47.030;15.396;2022-07-21T07:18:23;97783.44;;;31.11;34.13
22580;BME280;11456;47.030;15.396;2022-07-21T07:20:51;97779.81;;;31.05;34.72
22580;BME280;11456;47.030;15.396;2022-07-21T07:23:19;97783.63;;;31.40;32.56
22580;BME280;11456;47.030;15.396;2022-07-21T07:25:45;97784.28;;;30.91;32.69
22580;BME280;11456;47.030;15.396;2022-07-21T07:28:12;97782.28;;;31.22;32.02
22580;BME280;11456;47.030;15.396;2022-07-21T07:30:39;97775.56;;;32.03;32.23
22580;BME280;11456;47.030;15.396;2022-07-21T07:33:06;97779.88;;;32.34;31.33
22580;BME280;11456;47.030;15.396;2022-07-21T07:35:33;97777.53;;;31.28;31.40
22580;BME280;11456;47.030;15.396;2022-07-21T07:38:00;97780.22;;;31.63;31.46
22580;BME280;11456;47.030;15.396;2022-07-21T07:40:27;97770.13;;;31.77;30.87
22580;BME280;11456;47.030;15.396;2022-07-21T07:42:54;97767.09;;;32.28;29.57
22580;BME280;11456;47.030;15.396;2022-07-21T07:45:20;97761.28;;;32.58;29.00
22580;BME280;11456;47.030;15.396;2022-07-21T07:47:48;97766.84;;;32.63;30.10
22580;BME280;11456;47.030;15.396;2022-07-21T07:50:14;97756.50;;;33.51;27.79
22580;BME280;11456;47.030;15.396;2022-07-21T07:52:43;97761.19;;;33.31;27.67
22580;BME280;11456;47.030;15.396;2022-07-21T07:55:10;97761.13;;;33.36;28.53
22580;BME280;11456;47.030;15.396;2022-07-21T07:57:39;97758.59;;;32.82;29.31
22580;BME280;11456;47.030;15.396;2022-07-21T08:00:09;97759.03;;;32.21;29.72
22580;BME280;11456;47.030;15.396;2022-07-21T08:02:56;97759.00;;;32.71;28.80
22580;BME280;11456;47.030;15.396;2022-07-21T08:05:23;97759.75;;;33.58;28.54
22580;BME280;11456;47.030;15.396;2022-07-21T08:07:50;97758.69;;;33.30;28.92
22580;BME280;11456;47.030;15.396;2022-07-21T08:10:17;97760.78;;;32.51;30.12
22580;BME280;11456;47.030;15.396;2022-07-21T08:13:03;97763.31;;;32.48;32.08
22580;BME280;11456;47.030;15.396;2022-07-21T08:15:33;97757.47;;;33.12;31.84
22580;BME280;11456;47.030;15.396;2022-07-21T08:18:01;97761.91;;;34.08;30.76
22580;BME280;11456;47.030;15.396;2022-07-21T08:20:28;97759.41;;;33.40;30.25
22580;BME280;11456;47.030;15.396;2022-07-21T08:22:54;97754.75;;;33.55;30.24
22580;BME280;11456;47.030;15.396;2022-07-21T08:25:21;97762.66;;;32.95;30.96
22580;BME280;11456;47.030;15.396;2022-07-21T08:27:48;97757.56;;;33.02;30.27
22580;BME280;11456;47.030;15.396;2022-07-21T08:30:15;97762.06;;;32.98;30.07
22580;BME280;11456;47.030;15.396;2022-07-21T08:32:41;97761.38;;;33.11;29.68
22580;BME280;11456;47.030;15.396;2022-07-21T08:35:08;97762.84;;;33.32;28.79
22580;BME280;11456;47.030;15.396;2022-07-21T08:37:36;97764.59;;;33.52;28.88
22580;BME280;11456;47.030;15.396;2022-07-21T08:40:05;97762.38;;;33.49;28.56
22580;BME280;11456;47.030;15.396;2022-07-21T08:42:33;97760.94;;;34.18;27.26
22580;BME280;11456;47.030;15.396;2022-07-21T08:45:00;97756.09;;;33.38;28.34
22580;BME280;11456;47.030;15.396;2022-07-21T08:47:27;97754.41;;;33.85;27.77
22580;BME280;11456;47.030;15.396;2022-07-21T08:49:54;97763.19;;;33.50;27.51
22580;BME280;11456;47.030;15.396;2022-07-21T08:52:21;97760.25;;;34.07;27.54
22580;BME280;11456;47.030;15.396;2022-07-21T08:54:48;97757.44;;;34.07;26.25
22580;BME280;11456;47.030;15.396;2022-07-21T08:57:15;97762.75;;;34.97;25.98
22580;BME280;11456;47.030;15.396;2022-07-21T08:59:43;97763.56;;;34.66;26.10
22580;BME280;11456;47.030;15.396;2022-07-21T09:02:31;97761.75;;;34.18;26.08
22580;BME280;11456;47.030;15.396;2022-07-21T09:04:58;97762.22;;;34.63;26.03
22580;BME280;11456;47.030;15.396;2022-07-21T09:07:26;97759.84;;;33.95;26.95
22580;BME280;11456;47.030;15.396;2022-07-21T09:09:58;97756.47;;;35.06;25.68
22580;BME280;11456;47.030;15.396;2022-07-21T09:12:26;97758.16;;;34.37;25.93
22580;BME280;11456;47.030;15.396;2022-07-21T09:15:13;97760.72;;;35.17;24.49
22580;BME280;11456;47.030;15.396;2022-07-21T09:17:39;97757.75;;;34.62;25.51
22580;BME280;11456;47.030;15.396;2022-07-21T09:20:26;97752.03;;;34.35;25.08
22580;BME280;11456;47.030;15.396;2022-07-21T09:23:12;97746.25;;;34.31;25.95
22580;BME280;11456;47.030;15.396;2022-07-21T09:25:41;97754.72;;;34.77;25.47
22580;BME280;11456;47.030;15.396;2022-07-21T09:30:59;97752.53;;;35.07;25.19
22580;BME280;11456;47.030;15.396;2022-07-21T09:33:36;97757.00;;;34.75;24.32
22580;BME280;11456;47.030;15.396;2022-07-21T09:36:07;97746.81;;;34.09;25.95
22580;BME280;11456;47.030;15.396;2022-07-21T09:38:44;97740.53;;;34.55;24.71
22580;BME280;11456;47.030;15.396;2022-07-21T09:41:22;97743.84;;;35.22;24.96
22580;BME280;11456;47.030;15.396;2022-07-21T09:43:54;97736.69;;;34.83;25.21
22580;BME280;11456;47.030;15.396;2022-07-21T09:46:26;97735.00;;;34.69;26.16
22580;BME280;11456;47.030;15.396;2022-07-21T09:49:00;97732.41;;;36.00;24.58
22580;BME280;11456;47.030;15.396;2022-07-21T09:51:48;97741.69;;;34.86;25.60
22580;BME280;11456;47.030;15.396;2022-07-21T09:54:15;97729.91;;;36.93;23.88
22580;BME280;11456;47.030;15.396;2022-07-21T09:56:44;97731.44;;;35.83;23.31
22580;BME280;11456;47.030;15.396;2022-07-21T09:59:12;97734.75;;;36.56;22.37
22580;BME280;11456;47.030;15.396;2022-07-21T10:01:39;97729.63;;;37.25;21.83
22580;BME280;11456;47.030;15.396;2022-07-21T10:04:07;97731.34;;;37.83;20.25
22580;BME280;11456;47.030;15.396;2022-07-21T10:06:36;97736.63;;;37.37;19.91
22580;BME280;11456;47.030;15.396;2022-07-21T10:09:06;97726.56;;;37.13;20.78
22580;BME280;11456;47.030;15.396;2022-07-21T10:11:39;97730.25;;;37.22;20.60
22580;BME280;11456;47.030;15.396;2022-07-21T10:14:11;97732.16;;;36.24;21.58
22580;BME280;11456;47.030;15.396;2022-07-21T10:16:38;97731.25;;;38.05;19.65
22580;BME280;11456;47.030;15.396;2022-07-21T10:19:15;97727.03;;;37.38;19.50
22580;BME280;11456;47.030;15.396;2022-07-21T10:22:13;97727.75;;;36.90;19.86
22580;BME280;11456;47.030;15.396;2022-07-21T10:24:42;97729.41;;;36.46;19.71
22580;BME280;11456;47.030;15.396;2022-07-21T10:27:11;97719.06;;;36.33;20.80
22580;BME280;11456;47.030;15.396;2022-07-21T10:32:16;97726.34;;;36.34;21.19
22580;BME280;11456;47.030;15.396;2022-07-21T10:34:43;97719.56;;;37.02;21.23
22580;BME280;11456;47.030;15.396;2022-07-21T10:37:10;97714.63;;;37.39;20.68
22580;BME280;11456;47.030;15.396;2022-07-21T10:39:38;97717.81;;;38.80;20.01
22580;BME280;11456;47.030;15.396;2022-07-21T10:42:23;97716.69;;;38.21;19.79
22580;BME280;11456;47.030;15.396;2022-07-21T10:44:50;97710.13;;;39.23;19.40
22580;BME280;11456;47.030;15.396;2022-07-21T10:47:19;97710.97;;;37.69;20.95
22580;BME280;11456;47.030;15.396;2022-07-21T10:49:51;97718.34;;;38.22;20.65
22580;BME280;11456;47.030;15.396;2022-07-21T10:55:16;97709.88;;;37.96;20.38
22580;BME280;11456;47.030;15.396;2022-07-21T10:57:45;97698.69;;;37.65;21.64
22580;BME280;11456;47.030;15.396;2022-07-21T11:00:27;97705.81;;;37.71;21.66
22580;BME280;11456;47.030;15.396;2022-07-21T11:02:55;97698.84;;;37.20;21.74
22580;BME280;11456;47.030;15.396;2022-07-21T11:05:24;97698.91;;;39.06;20.01
22580;BME280;11456;47.030;15.396;2022-07-21T11:08:10;97698.59;;;37.30;21.60
22580;BME280;11456;47.030;15.396;2022-07-21T11:10:46;97695.03;;;37.16;22.30
22580;BME280;11456;47.030;15.396;2022-07-21T11:13:15;97700.97;;;37.15;22.60
22580;BME280;11456;47.030;15.396;2022-07-21T11:18:18;97696.91;;;37.78;21.30
22580;BME280;11456;47.030;15.396;2022-07-21T11:21:15;97690.94;;;37.62;20.99
22580;BME280;11456;47.030;15.396;2022-07-21T11:23:49;97687.88;;;38.75;20.92
22580;BME280;11456;47.030;15.396;2022-07-21T11:26:22;97695.19;;;36.89;21.16
22580;BME280;11456;47.030;15.396;2022-07-21T11:29:04;97688.81;;;37.28;21.28
22580;BME280;11456;47.030;15.396;2022-07-21T11:31:31;97678.09;;;37.39;20.60
22580;BME280;11456;47.030;15.396;2022-07-21T11:33:57;97679.78;;;37.48;21.62
22580;BME280;11456;47.030;15.396;2022-07-21T11:36:30;97686.88;;;37.06;22.48
22580;BME280;11456;47.030;15.396;2022-07-21T11:38:59;97688.53;;;36.32;22.73
22580;BME280;11456;47.030;15.396;2022-07-21T11:41:28;97690.94;;;36.91;21.35
22580;BME280;11456;47.030;15.396;2022-07-21T11:43:55;97678.44;;;36.75;21.29
22580;BME280;11456;47.030;15.396;2022-07-21T11:46:22;97678.50;;;36.39;21.67
22580;BME280;11456;47.030;15.396;2022-07-21T11:49:01;97680.44;;;36.52;21.57
22580;BME280;11456;47.030;15.396;2022-07-21T11:51:28;97676.44;;;36.98;22.10
22580;BME280;11456;47.030;15.396;2022-07-21T11:53:54;97675.88;;;36.43;22.32
22580;BME280;11456;47.030;15.396;2022-07-21T11:56:22;97678.19;;;36.05;23.35
22580;BME280;11456;47.030;15.396;2022-07-21T11:58:49;97676.94;;;37.96;21.02
22580;BME280;11456;47.030;15.396;2022-07-21T12:01:16;97666.03;;;36.68;21.80
22580;BME280;11456;47.030;15.396;2022-07-21T12:03:50;97671.88;;;36.58;22.11
22580;BME280;11456;47.030;15.396;2022-07-21T12:06:18;97676.94;;;36.11;22.56
22580;BME280;11456;47.030;15.396;2022-07-21T12:08:45;97663.09;;;37.52;21.44
22580;BME280;11456;47.030;15.396;2022-07-21T12:11:12;97662.94;;;36.55;22.52
22580;BME280;11456;47.030;15.396;2022-07-21T12:13:55;97652.50;;;38.05;21.17
22580;BME280;11456;47.030;15.396;2022-07-21T12:16:22;97655.22;;;36.83;22.28
22580;BME280;11456;47.030;15.396;2022-07-21T12:19:09;97652.50;;;38.05;20.71
22580;BME280;11456;47.030;15.396;2022-07-21T12:24:13;97647.31;;;36.85;21.89
22580;BME280;11456;47.030;15.396;2022-07-21T12:26:40;97646.31;;;37.78;20.45
22580;BME280;11456;47.030;15.396;2022-07-21T12:29:07;97643.19;;;38.65;19.51
22580;BME280;11456;47.030;15.396;2022-07-21T12:31:35;97645.53;;;38.29;20.41
22580;BME280;11456;47.030;15.396;2022-07-21T12:34:15;97648.84;;;38.48;20.12
22580;BME280;11456;47.030;15.396;2022-07-21T12:36:53;97645.00;;;37.92;20.09
22580;BME280;11456;47.030;15.396;2022-07-21T12:39:25;97641.41;;;39.45;18.96
22580;BME280;11456;47.030;15.396;2022-07-21T12:42:34;97632.44;;;38.50;19.57
22580;BME280;11456;47.030;15.396;2022-07-21T12:45:15;97627.13;;;39.50;19.28
22580;BME280;11456;47.030;15.396;2022-07-21T12:47:42;97629.94;;;37.71;22.83
22580;BME280;11456;47.030;15.396;2022-07-21T12:50:14;97621.16;;;38.41;20.13
22580;BME280;11456;47.030;15.396;2022-07-21T12:52:49;97629.38;;;37.52;20.61
22580;BME280;11456;47.030;15.396;2022-07-21T12:55:15;97630.09;;;38.61;19.66
22580;BME280;11456;47.030;15.396;2022-07-21T12:57:42;97624.53;;;38.99;19.40
22580;BME280;11456;47.030;15.396;2022-07-21T13:00:09;97618.59;;;40.09;19.13
22580;BME280;11456;47.030;15.396;2022-07-21T13:02:51;97629.38;;;39.36;18.91
22580;BME280;11456;47.030;15.396;2022-07-21T13:05:18;97627.78;;;38.71;19.24
22580;BME280;11456;47.030;15.396;2022-07-21T13:07:45;97618.38;;;38.33;19.55
22580;BME280;11456;47.030;15.396;2022-07-21T13:10:12;97618.28;;;37.47;20.96
22580;BME280;11456;47.030;15.396;2022-07-21T13:12:39;97620.22;;;38.11;20.68
22580;BME280;11456;47.030;15.396;2022-07-21T13:15:06;97615.59;;;37.90;20.64
22580;BME280;11456;47.030;15.396;2022-07-21T13:17:34;97617.66;;;38.79;19.75